createdAt,value
2019-05-13T00:02:13.359Z,0.54
2019-05-13T00:04:39.667Z,0.48
2019-05-13T00:07:05.919Z,0.45
2019-05-13T00:09:33.976Z,0.43
2019-05-13T00:12:00.340Z,0.43
2019-05-13T00:14:26.554Z,0.41
2019-05-13T00:16:53.670Z,0.39
2019-05-13T00:19:20.144Z,0.39
2019-05-13T00:21:46.389Z,0.38
2019-05-13T00:24:13.815Z,0.36
2019-05-13T00:26:40.169Z,0.36
2019-05-13T00:29:06.402Z,0.35
2019-05-13T00:31:33.584Z,0.38
2019-05-13T00:34:00.188Z,0.39
2019-05-13T00:36:26.441Z,0.35
2019-05-13T00:38:53.438Z,0.41
2019-05-13T00:41:19.816Z,0.41
2019-05-13T00:43:46.051Z,0.44
2019-05-13T00:46:14.223Z,0.47
2019-05-13T00:48:40.412Z,0.54
2019-05-13T00:51:06.659Z,0.53
2019-05-13T00:53:35.130Z,0.53
2019-05-13T00:56:01.040Z,0.62
2019-05-13T00:58:27.275Z,0.72
2019-05-13T01:00:54.628Z,0.75
2019-05-13T01:03:21.179Z,0.80
2019-05-13T01:05:47.404Z,0.84
2019-05-13T01:08:14.572Z,0.91
2019-05-13T01:10:41.105Z,0.94
2019-05-13T01:13:07.352Z,1.01
2019-05-13T01:15:34.335Z,1.07
2019-05-13T01:18:01.025Z,1.14
2019-05-13T01:20:27.251Z,1.19
2019-05-13T01:22:54.152Z,1.23
2019-05-13T01:25:20.524Z,1.10
2019-05-13T01:27:46.771Z,1.25
2019-05-13T01:30:13.720Z,1.24
2019-05-13T01:32:40.025Z,1.29
2019-05-13T01:35:06.459Z,1.32
2019-05-13T01:37:42.236Z,1.38
2019-05-13T01:40:00.856Z,1.41
2019-05-13T01:42:27.120Z,1.43
2019-05-13T01:44:53.843Z,1.48
2019-05-13T01:47:20.275Z,1.51
2019-05-13T01:49:46.516Z,1.55
2019-05-13T01:52:13.651Z,1.62
2019-05-13T01:54:39.986Z,1.65
2019-05-13T01:57:06.210Z,1.69
2019-05-13T01:59:34.684Z,1.74
2019-05-13T02:02:00.612Z,1.82
2019-05-13T02:04:26.858Z,1.87
2019-05-13T02:06:54.316Z,1.88
2019-05-13T02:09:20.753Z,1.87
2019-05-13T02:11:46.979Z,1.94
2019-05-13T02:14:13.365Z,1.93
2019-05-13T02:16:39.656Z,1.93
2019-05-13T02:19:05.907Z,1.97
2019-05-13T02:21:33.616Z,2.03
2019-05-13T02:24:00.082Z,2.08
2019-05-13T02:26:26.313Z,2.18
2019-05-13T02:28:54.124Z,2.21
2019-05-13T02:31:32.083Z,2.32
2019-05-13T02:33:48.860Z,2.34
2019-05-13T02:36:15.098Z,2.35
2019-05-13T02:38:42.690Z,2.41
2019-05-13T02:41:09.213Z,2.45
2019-05-13T02:43:35.458Z,2.49
2019-05-13T02:46:04.220Z,2.52
2019-05-13T02:48:32.628Z,2.58
2019-05-13T02:50:58.034Z,2.59
2019-05-13T02:53:24.635Z,2.60
2019-05-13T02:55:52.450Z,2.67
2019-05-13T02:58:18.933Z,2.69
2019-05-13T03:00:45.187Z,1.65
2019-05-13T03:03:12.850Z,2.73
2019-05-13T03:05:42.627Z,2.81
2019-05-13T03:08:07.529Z,2.85
2019-05-13T03:10:33.775Z,2.86
2019-05-13T03:13:03.337Z,2.99
2019-05-13T03:15:32.762Z,3.01
2019-05-13T03:18:04.895Z,3.01
2019-05-13T03:20:33.290Z,3.00
2019-05-13T03:23:02.807Z,3.03
2019-05-13T03:25:27.426Z,3.12
2019-05-13T03:27:54.409Z,3.13
2019-05-13T03:30:25.484Z,3.18
2019-05-13T03:32:55.319Z,3.22
2019-05-13T03:35:17.284Z,3.23
2019-05-13T03:37:43.714Z,3.25
2019-05-13T03:40:13.129Z,3.29
2019-05-13T03:42:42.494Z,3.34
2019-05-13T03:45:09.334Z,3.38
2019-05-13T03:47:37.814Z,3.43
2019-05-13T03:50:05.629Z,3.49
2019-05-13T03:52:33.618Z,3.53
2019-05-13T03:55:03.177Z,3.59
2019-05-13T03:57:28.870Z,3.68
2019-05-13T03:59:55.101Z,3.75
2019-05-13T04:02:22.608Z,3.81
2019-05-13T04:04:49.179Z,3.86
2019-05-13T04:07:15.421Z,3.91
2019-05-13T04:09:42.657Z,4.00
2019-05-13T04:12:09.019Z,4.06
2019-05-13T04:14:35.376Z,4.14
2019-05-13T04:17:02.943Z,4.24
2019-05-13T04:19:33.713Z,4.31
2019-05-13T04:22:02.189Z,4.41
2019-05-13T04:24:27.498Z,4.48
2019-05-13T04:26:54.058Z,4.58
2019-05-13T04:29:23.166Z,4.67
2019-05-13T04:31:48.570Z,4.78
2019-05-13T04:34:14.915Z,4.94
2019-05-13T04:36:43.124Z,5.01
2019-05-13T04:39:12.654Z,5.13
2019-05-13T04:41:37.475Z,5.31
2019-05-13T04:44:03.749Z,5.39
2019-05-13T04:46:32.829Z,5.59
2019-05-13T04:48:58.143Z,5.73
2019-05-13T04:51:24.375Z,5.82
2019-05-13T04:53:56.054Z,5.93
2019-05-13T04:56:18.788Z,6.02
2019-05-13T04:58:45.021Z,6.15
2019-05-13T05:01:23.834Z,6.23
2019-05-13T05:03:55.457Z,6.33
2019-05-13T05:06:28.283Z,6.52
2019-05-13T05:09:13.381Z,6.71
2019-05-13T05:12:05.545Z,7.10
2019-05-13T05:15:05.882Z,7.26
2019-05-13T05:17:53.998Z,7.33
2019-05-13T05:20:38.967Z,7.69
2019-05-13T05:23:14.813Z,8.06
2019-05-13T05:26:01.319Z,8.31
2019-05-13T05:28:46.477Z,8.45
2019-05-13T05:31:28.387Z,8.60
2019-05-13T05:34:18.042Z,8.95
2019-05-13T05:36:53.441Z,9.34
2019-05-13T05:39:23.282Z,10.10
2019-05-13T05:41:53.042Z,10.47
2019-05-13T05:44:22.775Z,10.40
2019-05-13T05:46:52.621Z,10.43
2019-05-13T05:49:21.360Z,10.57
2019-05-13T05:51:51.515Z,10.30
2019-05-13T05:54:21.672Z,10.11
2019-05-13T05:56:51.914Z,10.02
2019-05-13T05:59:21.705Z,9.91
2019-05-13T06:01:52.562Z,9.89
2019-05-13T06:04:21.931Z,10.23
2019-05-13T06:06:48.595Z,10.42
2019-05-13T06:09:14.860Z,10.42
2019-05-13T06:11:41.714Z,10.54
2019-05-13T06:14:08.137Z,10.54
2019-05-13T06:16:34.389Z,10.58
2019-05-13T06:19:01.455Z,10.94
2019-05-13T06:21:27.913Z,11.03
2019-05-13T06:23:54.146Z,10.97
2019-05-13T06:26:23.602Z,10.74
2019-05-13T06:28:48.536Z,10.51
2019-05-13T06:31:14.780Z,10.41
2019-05-13T06:33:42.212Z,10.63
2019-05-13T06:36:08.668Z,10.75
2019-05-13T06:38:34.917Z,10.61
2019-05-13T06:41:06.712Z,10.65
2019-05-13T06:43:31.472Z,10.24
2019-05-13T06:45:57.455Z,10.14
2019-05-13T06:48:23.681Z,10.17
2019-05-13T06:50:52.009Z,10.51
2019-05-13T06:53:18.064Z,10.74
2019-05-13T06:55:44.325Z,11.09
2019-05-13T06:58:11.397Z,11.23
2019-05-13T07:00:37.914Z,11.33
2019-05-13T07:03:04.152Z,11.04
2019-05-13T07:05:31.779Z,10.68
2019-05-13T07:07:58.256Z,10.55
2019-05-13T07:10:24.513Z,10.03
2019-05-13T07:12:51.905Z,9.77
2019-05-13T07:15:18.736Z,9.99
2019-05-13T07:17:44.956Z,10.04
2019-05-13T07:20:11.802Z,10.01
2019-05-13T07:22:38.164Z,9.68
2019-05-13T07:25:05.493Z,9.94
2019-05-13T07:27:31.975Z,10.18
2019-05-13T07:29:58.272Z,10.20
2019-05-13T07:32:24.553Z,10.09
2019-05-13T07:34:53.186Z,10.09
2019-05-13T07:37:21.347Z,9.92
2019-05-13T07:39:47.791Z,10.22
2019-05-13T07:42:14.139Z,10.50
2019-05-13T07:44:41.690Z,10.69
2019-05-13T07:47:08.138Z,10.73
2019-05-13T07:49:34.669Z,10.95
2019-05-13T07:52:01.800Z,11.01
2019-05-13T07:54:28.248Z,11.14
2019-05-13T07:56:54.505Z,11.03
2019-05-13T07:59:21.214Z,11.24
2019-05-13T08:01:47.596Z,11.43
2019-05-13T08:04:22.384Z,11.62
2019-05-13T08:06:42.006Z,11.72
2019-05-13T08:09:08.644Z,11.81
2019-05-13T08:11:40.159Z,12.14
2019-05-13T08:14:03.072Z,11.68
2019-05-13T08:16:32.132Z,11.71
2019-05-13T08:18:58.051Z,11.74
2019-05-13T08:21:24.265Z,11.52
2019-05-13T08:23:52.418Z,11.59
2019-05-13T08:26:18.685Z,11.70
2019-05-13T08:28:56.934Z,12.27
2019-05-13T08:31:13.092Z,12.98
2019-05-13T08:33:39.339Z,13.12
2019-05-13T08:36:05.569Z,12.82
2019-05-13T08:38:32.265Z,13.03
2019-05-13T08:40:58.583Z,13.33
2019-05-13T08:43:24.829Z,13.03
2019-05-13T08:45:52.425Z,13.11
2019-05-13T08:48:22.026Z,13.13
2019-05-13T08:50:47.380Z,12.95
2019-05-13T08:53:13.614Z,13.18
2019-05-13T08:55:42.217Z,13.20
2019-05-13T08:58:08.002Z,12.73
2019-05-13T09:00:52.552Z,12.55
2019-05-13T09:03:18.126Z,12.99
2019-05-13T09:05:44.774Z,13.51
2019-05-13T09:08:11.600Z,13.64
2019-05-13T09:10:37.884Z,13.55
2019-05-13T09:13:04.112Z,13.52
2019-05-13T09:15:31.645Z,13.54
2019-05-13T09:17:58.026Z,13.66
2019-05-13T09:20:24.278Z,13.35
2019-05-13T09:22:51.461Z,13.52
2019-05-13T09:25:17.865Z,13.68
2019-05-13T09:27:44.100Z,13.55
2019-05-13T09:30:11.862Z,13.68
2019-05-13T09:32:38.295Z,13.83
2019-05-13T09:35:05.150Z,12.92
2019-05-13T09:37:31.800Z,13.44
2019-05-13T09:39:58.123Z,13.63
2019-05-13T09:42:24.391Z,13.20
2019-05-13T09:44:52.463Z,13.34
2019-05-13T09:47:18.770Z,13.27
2019-05-13T09:49:45.029Z,13.09
2019-05-13T09:52:12.024Z,13.22
2019-05-13T09:54:38.426Z,13.22
2019-05-13T09:57:04.668Z,13.06
2019-05-13T09:59:31.825Z,13.19
2019-05-13T10:01:58.452Z,13.59
2019-05-13T10:04:24.714Z,14.08
2019-05-13T10:06:50.947Z,13.92
2019-05-13T10:09:17.287Z,14.49
2019-05-13T10:11:43.522Z,15.16
2019-05-13T10:14:11.592Z,15.39
2019-05-13T10:16:37.926Z,15.41
2019-05-13T10:19:04.178Z,15.62
2019-05-13T10:21:32.702Z,15.28
2019-05-13T10:23:58.951Z,14.81
2019-05-13T10:26:25.556Z,14.38
2019-05-13T10:28:51.993Z,14.96
2019-05-13T10:31:18.285Z,15.22
2019-05-13T10:33:44.528Z,15.00
2019-05-13T10:36:12.117Z,14.93
2019-05-13T10:38:38.642Z,15.46
2019-05-13T10:41:04.956Z,15.39
2019-05-13T10:43:32.163Z,15.39
2019-05-13T10:46:01.922Z,14.76
2019-05-13T10:48:27.382Z,14.37
2019-05-13T10:50:53.653Z,14.05
2019-05-13T10:53:22.123Z,13.56
2019-05-13T10:55:48.086Z,13.56
2019-05-13T10:58:14.337Z,13.33
2019-05-13T11:00:43.785Z,13.15
2019-05-13T11:03:11.760Z,12.66
2019-05-13T11:05:42.062Z,12.47
2019-05-13T11:08:07.533Z,12.31
2019-05-13T11:10:33.769Z,12.49
2019-05-13T11:13:01.581Z,12.66
2019-05-13T11:15:32.716Z,12.23
2019-05-13T11:17:56.199Z,12.36
2019-05-13T11:20:22.446Z,12.62
2019-05-13T11:22:48.979Z,12.77
2019-05-13T11:25:15.221Z,13.05
2019-05-13T11:27:42.274Z,13.15
2019-05-13T11:30:08.823Z,13.22
2019-05-13T11:32:35.083Z,12.82
2019-05-13T11:35:02.092Z,12.88
2019-05-13T11:37:28.503Z,13.09
2019-05-13T11:39:54.777Z,12.86
2019-05-13T11:42:22.633Z,13.08
2019-05-13T11:44:52.546Z,13.17
2019-05-13T11:47:17.353Z,12.71
2019-05-13T11:49:43.647Z,12.64
2019-05-13T11:52:11.659Z,12.78
2019-05-13T11:54:38.105Z,12.73
2019-05-13T11:57:06.383Z,13.00
2019-05-13T11:59:33.134Z,13.36
2019-05-13T12:02:03.956Z,13.36
2019-05-13T12:04:27.751Z,13.22
2019-05-13T12:06:54.829Z,13.16
2019-05-13T12:09:22.237Z,13.11
2019-05-13T12:11:48.669Z,13.01
2019-05-13T12:14:42.489Z,13.03
2019-05-13T12:16:43.046Z,12.96
2019-05-13T12:19:11.869Z,13.02
2019-05-13T12:21:42.152Z,12.98
2019-05-13T12:24:10.310Z,12.79
2019-05-13T12:26:33.727Z,12.72
2019-05-13T12:29:02.745Z,12.63
2019-05-13T12:31:28.112Z,12.54
2019-05-13T12:33:54.363Z,12.33
2019-05-13T12:36:23.473Z,12.49
2019-05-13T12:38:48.768Z,12.75
2019-05-13T12:41:15.027Z,12.88
2019-05-13T12:43:42.642Z,12.85
2019-05-13T12:46:12.279Z,12.67
2019-05-13T12:48:37.259Z,12.39
2019-05-13T12:51:03.521Z,12.37
2019-05-13T12:53:32.130Z,12.55
2019-05-13T12:55:57.888Z,12.98
2019-05-13T12:58:24.167Z,13.53
2019-05-13T13:00:53.251Z,13.53
2019-05-13T13:03:18.520Z,13.63
2019-05-13T13:05:44.749Z,13.48
2019-05-13T13:08:23.939Z,13.35
2019-05-13T13:10:39.242Z,13.51
2019-05-13T13:13:05.608Z,13.63
2019-05-13T13:15:38.239Z,13.34
2019-05-13T13:18:02.547Z,13.25
2019-05-13T13:20:28.525Z,13.17
2019-05-13T13:22:54.788Z,13.12
2019-05-13T13:25:23.951Z,13.32
2019-05-13T13:28:08.947Z,13.45
2019-05-13T13:30:17.615Z,13.47
2019-05-13T13:32:45.617Z,13.57
2019-05-13T13:35:14.616Z,13.37
2019-05-13T13:37:45.910Z,13.42
2019-05-13T13:40:08.825Z,13.41
2019-05-13T13:42:35.081Z,13.38
2019-05-13T13:45:05.983Z,13.13
2019-05-13T13:47:32.471Z,12.84
2019-05-13T13:49:57.609Z,12.83
2019-05-13T13:52:23.837Z,12.90
2019-05-13T13:54:58.977Z,12.88
2019-05-13T13:57:18.224Z,12.82
2019-05-13T14:00:14.079Z,12.78
2019-05-13T14:02:13.651Z,12.73
2019-05-13T14:04:42.926Z,12.63
2019-05-13T14:07:25.331Z,12.67
2019-05-13T14:09:36.431Z,12.30
2019-05-13T14:12:02.766Z,12.05
2019-05-13T14:14:29.009Z,12.05
2019-05-13T14:16:55.253Z,12.06
2019-05-13T14:19:21.937Z,12.11
2019-05-13T14:21:48.256Z,12.10
2019-05-13T14:24:14.500Z,11.82
2019-05-13T14:26:43.322Z,11.73
2019-05-13T14:29:08.882Z,11.94
2019-05-13T14:31:35.126Z,12.05
2019-05-13T14:34:03.632Z,12.26
2019-05-13T14:36:29.537Z,12.37
2019-05-13T14:38:55.768Z,12.28
2019-05-13T14:41:22.127Z,12.19
2019-05-13T14:43:48.371Z,12.11
2019-05-13T14:46:14.616Z,11.85
2019-05-13T14:48:42.660Z,11.71
2019-05-13T14:51:08.988Z,11.56
2019-05-13T14:53:35.221Z,11.47
2019-05-13T14:56:02.939Z,11.48
2019-05-13T14:58:32.493Z,11.52
2019-05-13T15:01:11.192Z,11.58
2019-05-13T15:03:26.153Z,11.75
2019-05-13T15:05:52.421Z,11.68
2019-05-13T15:08:23.027Z,11.41
2019-05-13T15:10:47.107Z,11.25
2019-05-13T15:13:13.340Z,11.12
2019-05-13T15:15:42.035Z,11.16
2019-05-13T15:18:07.741Z,11.24
2019-05-13T15:20:33.988Z,11.08
2019-05-13T15:23:00.212Z,11.07
2019-05-13T15:25:27.428Z,11.06
2019-05-13T15:27:54.190Z,11.10
2019-05-13T15:30:21.800Z,10.98
2019-05-13T15:32:48.485Z,10.79
2019-05-13T15:35:14.720Z,10.76
2019-05-13T15:37:41.786Z,10.70
2019-05-13T15:40:11.542Z,10.66
2019-05-13T15:42:37.048Z,10.60
2019-05-13T15:45:05.703Z,10.54
2019-05-13T15:47:31.954Z,10.45
2019-05-13T15:49:58.184Z,10.25
2019-05-13T15:52:24.435Z,10.07
2019-05-13T15:54:52.254Z,9.93
2019-05-13T15:57:21.202Z,9.84
2019-05-13T15:59:46.880Z,9.82
2019-05-13T16:02:13.323Z,9.82
2019-05-13T16:04:49.979Z,9.85
2019-05-13T16:07:07.713Z,9.88
2019-05-13T16:09:34.093Z,9.90
2019-05-13T16:12:03.104Z,9.91
2019-05-13T16:14:31.486Z,9.91
2019-05-13T16:16:57.507Z,9.95
2019-05-13T16:19:24.164Z,9.93
2019-05-13T16:21:51.839Z,9.95
2019-05-13T16:24:18.338Z,9.92
2019-05-13T16:26:44.587Z,9.90
2019-05-13T16:29:12.473Z,9.91
2019-05-13T16:31:41.361Z,9.98
2019-05-13T16:34:07.129Z,10.06
2019-05-13T16:36:33.374Z,10.19
2019-05-13T16:39:02.012Z,10.20
2019-05-13T16:41:28.562Z,10.07
2019-05-13T16:43:54.809Z,10.00
2019-05-13T16:46:21.494Z,9.91
2019-05-13T16:48:47.783Z,9.83
2019-05-13T16:51:14.024Z,9.69
2019-05-13T16:53:42.133Z,9.54
2019-05-13T16:56:08.401Z,9.38
2019-05-13T16:58:34.650Z,9.27
2019-05-13T17:01:02.523Z,9.14
2019-05-13T17:03:29.031Z,9.07
2019-05-13T17:05:55.682Z,8.95
2019-05-13T17:08:21.907Z,8.87
2019-05-13T17:10:48.146Z,8.79
2019-05-13T17:13:14.379Z,8.72
2019-05-13T17:15:41.680Z,8.66
2019-05-13T17:18:11.893Z,8.55
2019-05-13T17:20:36.237Z,8.43
2019-05-13T17:23:02.470Z,8.34
2019-05-13T17:25:28.711Z,8.21
2019-05-13T17:27:54.935Z,8.14
2019-05-13T17:30:22.014Z,8.04
2019-05-13T17:32:48.316Z,7.96
2019-05-13T17:35:14.665Z,7.91
2019-05-13T17:37:42.192Z,7.89
2019-05-13T17:40:08.665Z,7.82
2019-05-13T17:42:36.752Z,7.72
2019-05-13T17:45:05.688Z,7.64
2019-05-13T17:47:31.927Z,7.56
2019-05-13T17:49:58.160Z,7.48
2019-05-13T17:52:24.411Z,7.40
2019-05-13T17:54:51.809Z,7.27
2019-05-13T17:57:18.243Z,7.17
2019-05-13T17:59:44.482Z,7.11
2019-05-13T18:02:11.840Z,7.07
2019-05-13T18:04:38.373Z,7.04
2019-05-13T18:07:04.615Z,7.02
2019-05-13T18:09:31.934Z,6.98
2019-05-13T18:11:58.547Z,6.95
2019-05-13T18:14:24.772Z,6.88
2019-05-13T18:16:51.023Z,6.81
2019-05-13T18:19:17.285Z,6.76
2019-05-13T18:21:43.537Z,6.65
2019-05-13T18:24:11.831Z,6.60
2019-05-13T18:26:41.583Z,6.57
2019-05-13T18:29:07.415Z,6.54
2019-05-13T18:31:33.662Z,6.50
2019-05-13T18:34:01.608Z,6.48
2019-05-13T18:36:28.019Z,6.50
2019-05-13T18:38:54.263Z,6.46
2019-05-13T18:41:21.354Z,6.45
2019-05-13T18:43:47.798Z,6.42
2019-05-13T18:46:14.023Z,6.37
2019-05-13T18:48:57.383Z,6.30
2019-05-13T18:51:08.445Z,6.24
2019-05-13T18:53:34.708Z,6.16
2019-05-13T18:56:02.128Z,6.12
2019-05-13T18:58:28.544Z,6.06
2019-05-13T19:00:54.782Z,5.95
2019-05-13T19:03:21.814Z,5.88
2019-05-13T19:05:48.251Z,5.80
2019-05-13T19:08:14.521Z,5.73
2019-05-13T19:10:41.483Z,5.63
2019-05-13T19:13:07.819Z,5.55
2019-05-13T19:15:34.065Z,5.50
2019-05-13T19:18:00.299Z,5.44
2019-05-13T19:20:27.035Z,5.39
2019-05-13T19:22:53.276Z,5.31
2019-05-13T19:25:19.529Z,5.20
2019-05-13T19:27:45.771Z,5.11
2019-05-13T19:30:12.427Z,5.00
2019-05-13T19:32:41.414Z,4.91
2019-05-13T19:35:07.127Z,4.82
2019-05-13T19:37:33.387Z,4.71
2019-05-13T19:40:01.211Z,4.59
2019-05-13T19:42:27.584Z,4.48
2019-05-13T19:44:53.846Z,4.38
2019-05-13T19:47:20.079Z,4.27
2019-05-13T19:49:46.917Z,4.16
2019-05-13T19:52:13.296Z,4.04
2019-05-13T19:54:41.859Z,3.93
2019-05-13T19:57:07.670Z,3.77
2019-05-13T19:59:33.917Z,3.65
2019-05-13T20:02:01.494Z,3.54
2019-05-13T20:04:27.843Z,3.41
2019-05-13T20:06:54.087Z,3.29
2019-05-13T20:09:21.529Z,3.19
2019-05-13T20:11:47.957Z,3.08
2019-05-13T20:14:14.200Z,2.96
2019-05-13T20:16:41.701Z,2.84
2019-05-13T20:19:08.069Z,2.71
2019-05-13T20:21:34.328Z,2.59
2019-05-13T20:24:00.556Z,2.49
2019-05-13T20:26:26.807Z,2.40
2019-05-13T20:28:53.036Z,2.28
2019-05-13T20:31:21.518Z,2.19
2019-05-13T20:33:47.428Z,2.10
2019-05-13T20:36:13.681Z,2.01
2019-05-13T20:38:39.913Z,1.94
2019-05-13T20:41:06.159Z,1.86
2019-05-13T20:43:32.961Z,1.75
2019-05-13T20:46:01.745Z,1.67
2019-05-13T20:48:27.588Z,1.59
2019-05-13T20:50:53.815Z,1.50
2019-05-13T20:53:21.716Z,1.42
2019-05-13T20:55:48.104Z,1.33
2019-05-13T20:58:14.356Z,1.19
2019-05-13T21:00:42.244Z,1.09
2019-05-13T21:03:08.648Z,0.99
2019-05-13T21:05:34.897Z,0.87
2019-05-13T21:08:01.756Z,0.80
2019-05-13T21:10:28.095Z,0.74
2019-05-13T21:12:54.346Z,0.69
2019-05-13T21:15:20.584Z,0.66
2019-05-13T21:17:46.831Z,0.64
2019-05-13T21:20:19.720Z,0.64
2019-05-13T21:22:42.352Z,0.62
2019-05-13T21:25:08.850Z,0.57
2019-05-13T21:27:35.090Z,0.56
2019-05-13T21:30:01.412Z,0.53
2019-05-13T21:32:27.766Z,0.50
2019-05-13T21:34:54.028Z,0.44
2019-05-13T21:37:22.104Z,0.38
2019-05-13T21:39:48.407Z,0.32
2019-05-13T21:42:14.648Z,0.27
2019-05-13T21:44:41.979Z,0.22
2019-05-13T21:47:08.452Z,0.17
2019-05-13T21:49:34.707Z,0.14
2019-05-13T21:52:00.952Z,0.13
2019-05-13T21:54:27.199Z,0.14
2019-05-13T21:56:53.432Z,0.12
2019-05-13T21:59:23.029Z,0.11
2019-05-13T22:01:47.821Z,0.08
2019-05-13T22:04:14.065Z,0.08
2019-05-13T22:06:40.295Z,0.06
2019-05-13T22:09:08.548Z,0.04
2019-05-13T22:11:35.246Z,0.04
2019-05-13T22:14:01.835Z,-0.01
2019-05-13T22:16:28.158Z,-0.03
2019-05-13T22:18:54.439Z,-0.03
2019-05-13T22:21:20.669Z,-0.04
2019-05-13T22:23:47.004Z,-0.06
2019-05-13T22:26:13.254Z,-0.10
2019-05-13T22:28:41.613Z,-0.15
2019-05-13T22:31:07.649Z,-0.20
2019-05-13T22:33:33.900Z,-1.15
2019-05-13T22:36:01.660Z,-0.23
2019-05-13T22:38:28.088Z,-0.27
2019-05-13T22:40:54.338Z,-0.32
2019-05-13T22:43:21.179Z,-0.36
2019-05-13T22:45:47.523Z,-0.41
2019-05-13T22:48:14.964Z,-0.44
2019-05-13T22:50:41.653Z,-0.47
2019-05-13T22:53:07.854Z,-0.52
2019-05-13T22:55:34.113Z,-0.55
2019-05-13T22:58:01.550Z,-0.55
2019-05-13T23:00:27.982Z,-0.58
2019-05-13T23:02:54.218Z,-0.53
2019-05-13T23:05:21.801Z,-0.42
2019-05-13T23:07:48.219Z,-0.39
2019-05-13T23:10:14.676Z,-0.31
2019-05-13T23:12:42.087Z,-0.26
2019-05-13T23:15:08.558Z,-0.19
2019-05-13T23:17:34.807Z,-0.19
2019-05-13T23:20:01.489Z,-0.19
2019-05-13T23:22:27.804Z,-0.18
2019-05-13T23:24:54.048Z,-0.18
2019-05-13T23:27:22.029Z,-0.14
2019-05-13T23:29:48.400Z,-0.13
2019-05-13T23:32:14.646Z,-0.10
2019-05-13T23:34:42.299Z,-0.11
2019-05-13T23:37:11.217Z,-0.11
2019-05-13T23:39:36.985Z,-0.11
2019-05-13T23:42:03.228Z,-0.11
2019-05-13T23:44:32.008Z,-0.09
2019-05-13T23:46:57.616Z,-0.03
2019-05-13T23:49:23.848Z,0.01
2019-05-13T23:51:52.035Z,0.02
2019-05-13T23:54:18.216Z,-0.03
2019-05-13T23:56:44.444Z,-0.05
2019-05-13T23:59:11.338Z,-0.12
